Malaga, Spain
Current Conditions -  °F | °C
As of 1:30 PM on Sunday 23 Nov 2014 (Local Time) from LEMG Reporting Station
Clear Clear  
Wind Chill: 68°   Ceiling: Unl
Heat Index: 68°   Visibility: 6mi
Dew Point: 57°   Wind: 8mph
Humidity: 68%   Direction: 100°E
Pressure: 29.83"   Gusts: NA
Location:  36.72°N, 4.42°W
Report Text: LEMG 231230Z 10007KT 060V150 CAVOK 20/14 Q1010 NOSIG
Loading
Personal Weather Stations






























Interactive Weather Map New forecast layout! Learn more

10-Day Weather Forecast

Advertisements
Track Severe Weather on mobile